Time;durP1;ratioP1;P1;durP2;ratioP2;P2;SDS_P1;SDS_P2;PMS_P1;PMS_P2;Temp;Humidity;BMP_temperature;BMP_pressure;BME280_temperature;BME280_humidity;BME280_pressure;Samples;Min_cycle;Max_cycle;Signal;HPM_P1;HPM_P2
2023/04/07 00:01:17;;;;;;;;;;;12.80;59.20;;;;;;5052888;28;19920;-90
2023/04/07 00:04:01;;;;;;;;;;;12.80;59.30;;;;;;5052988;28;19931;-90
2023/04/07 00:06:29;;;;;;;;;;;12.80;59.30;;;;;;5069811;28;19916;-90
2023/04/07 00:09:12;;;;;;;;;;;12.80;59.20;;;;;;5052901;28;19909;-90
2023/04/07 00:11:47;;;;;;;;;;;12.80;59.30;;;;;;5052799;28;19908;-90
2023/04/07 00:14:19;;;;;;;;;;;12.80;59.30;;;;;;5052076;28;20287;-90
2023/04/07 00:17:03;;;;;;;;;;;12.80;59.30;;;;;;5053174;28;19908;-90
2023/04/07 00:19:32;;;;;;;;;;;12.80;59.30;;;;;;5052603;28;19920;-90
2023/04/07 00:22:00;;;;;;;;;;;12.80;59.40;;;;;;5052548;28;20482;-90
2023/04/07 00:24:32;;;;;;;;;;;12.80;59.30;;;;;;5036460;28;20160;-91
2023/04/07 00:30:14;;;;;;;;;;;12.80;59.30;;;;;;4954714;29;19910;-89
2023/04/07 00:32:39;;;;;;;;;;;12.80;59.30;;;;;;4953913;29;20262;-90
2023/04/07 00:35:26;;;;;;;;;;;12.80;59.30;;;;;;4953163;29;19914;-90
2023/04/07 00:38:03;;;;;;;;;;;12.80;59.30;;;;;;4920725;29;20148;-90
2023/04/07 00:40:38;;;;;;;;;;;12.80;59.40;;;;;;4943295;28;19915;-90
2023/04/07 00:43:03;;;;;;;;;;;12.80;59.40;;;;;;5051234;28;19978;-90
2023/04/07 00:48:30;;;;;;;;;;;12.80;59.40;;;;;;5045515;28;19921;-90
2023/04/07 00:50:56;;;;;;;;;;;12.80;59.40;;;;;;5051233;28;19986;-90
2023/04/07 00:53:21;;;;;;;;;;;12.80;59.30;;;;;;5055272;28;20011;-90
2023/04/07 00:56:02;;;;;;;;;;;12.80;59.40;;;;;;5055538;28;20206;-90
2023/04/07 00:58:28;;;;;;;;;;;12.80;59.40;;;;;;5055445;28;20075;-90
2023/04/07 01:01:28;;;;;;;;;;;12.80;59.40;;;;;;5059600;28;19920;-91
2023/04/07 01:07:21;;;;;;;;;;;12.80;59.40;;;;;;5078263;28;19919;-90
2023/04/07 01:10:09;;;;;;;;;;;12.80;59.40;;;;;;5057447;28;19909;-90
2023/04/07 01:13:06;;;;;;;;;;;12.80;59.40;;;;;;5062101;28;19909;-90
2023/04/07 01:15:55;;;;;;;;;;;12.80;59.40;;;;;;5061410;28;19919;-90
2023/04/07 01:18:27;;;;;;;;;;;12.80;59.40;;;;;;5061258;28;20285;-90
2023/04/07 01:21:04;;;;;;;;;;;12.80;59.40;;;;;;5060525;28;19919;-90
2023/04/07 01:23:53;;;;;;;;;;;12.80;59.40;;;;;;5060260;28;20217;-90
2023/04/07 01:32:31;;;;;;;;;;;12.80;59.50;;;;;;5075156;28;19920;-90
2023/04/07 01:34:57;;;;;;;;;;;12.80;59.50;;;;;;5059231;28;19908;-90
2023/04/07 01:37:24;;;;;;;;;;;12.80;59.60;;;;;;5059350;28;19908;-90
2023/04/07 01:43:03;;;;;;;;;;;12.80;59.50;;;;;;5038075;28;20143;-90
2023/04/07 01:45:38;;;;;;;;;;;12.80;59.50;;;;;;5059643;28;19916;-90
2023/04/07 01:48:07;;;;;;;;;;;12.80;59.60;;;;;;5077978;28;19912;-90
2023/04/07 01:51:02;;;;;;;;;;;12.80;59.60;;;;;;5060837;28;19999;-90
2023/04/07 01:53:30;;;;;;;;;;;12.80;59.60;;;;;;5019413;28;19909;-90
2023/04/07 01:56:07;;;;;;;;;;;12.80;59.60;;;;;;5020546;28;20003;-90
2023/04/07 02:01:59;;;;;;;;;;;12.80;59.60;;;;;;4997960;28;19967;-90
2023/04/07 02:10:23;;;;;;;;;;;12.80;59.70;;;;;;5015505;28;20064;-90
2023/04/07 02:13:08;;;;;;;;;;;12.80;59.70;;;;;;5014898;28;20018;-90
2023/04/07 02:15:47;;;;;;;;;;;12.80;59.70;;;;;;4994788;28;19916;-90
2023/04/07 02:18:31;;;;;;;;;;;12.80;59.70;;;;;;4976341;28;19972;-90
2023/04/07 02:21:32;;;;;;;;;;;12.80;59.70;;;;;;4977406;28;19914;-89
2023/04/07 02:24:01;;;;;;;;;;;12.80;59.80;;;;;;4916476;29;20001;-89
2023/04/07 02:26:38;;;;;;;;;;;12.80;59.70;;;;;;4918144;29;20293;-89
2023/04/07 02:32:16;;;;;;;;;;;12.80;59.80;;;;;;4916690;29;19946;-90
2023/04/07 02:35:09;;;;;;;;;;;12.80;59.80;;;;;;4917155;29;19911;-90
2023/04/07 02:37:34;;;;;;;;;;;12.80;59.80;;;;;;4885732;29;20282;-90
2023/04/07 02:40:09;;;;;;;;;;;12.80;59.80;;;;;;4898508;29;20404;-90
2023/04/07 02:42:46;;;;;;;;;;;12.80;59.80;;;;;;4885227;29;20365;-90
2023/04/07 02:45:12;;;;;;;;;;;12.80;59.80;;;;;;4916434;29;19979;-90
2023/04/07 02:48:11;;;;;;;;;;;12.80;59.90;;;;;;5008620;28;19921;-90
2023/04/07 02:51:05;;;;;;;;;;;12.70;59.80;;;;;;5059463;28;19948;-90
2023/04/07 02:53:40;;;;;;;;;;;12.80;59.90;;;;;;5058674;28;20160;-90
2023/04/07 02:56:31;;;;;;;;;;;12.70;59.90;;;;;;5058462;28;19966;-89
2023/04/07 02:59:03;;;;;;;;;;;12.80;59.90;;;;;;5057008;28;19908;-90
2023/04/07 03:01:28;;;;;;;;;;;12.70;59.90;;;;;;5058418;28;20282;-90
2023/04/07 03:04:22;;;;;;;;;;;12.70;59.90;;;;;;5074944;28;20119;-90
2023/04/07 03:10:02;;;;;;;;;;;12.70;59.90;;;;;;5061419;28;19936;-90
2023/04/07 03:12:30;;;;;;;;;;;12.70;59.90;;;;;;5058680;28;19982;-89
2023/04/07 03:15:06;;;;;;;;;;;12.70;59.90;;;;;;5058757;28;19945;-89
2023/04/07 03:17:34;;;;;;;;;;;12.70;59.90;;;;;;5014863;28;19913;-90
2023/04/07 03:19:59;;;;;;;;;;;12.70;59.90;;;;;;5014814;28;19914;-90
2023/04/07 03:22:49;;;;;;;;;;;12.70;59.90;;;;;;5012942;28;19932;-90
2023/04/07 03:28:11;;;;;;;;;;;12.70;60.00;;;;;;5011763;28;19948;-90
2023/04/07 03:30:36;;;;;;;;;;;12.70;60.00;;;;;;5013244;28;20204;-90
2023/04/07 03:33:11;;;;;;;;;;;12.70;60.00;;;;;;5012926;28;20498;-89
2023/04/07 03:35:58;;;;;;;;;;;12.70;60.00;;;;;;5014458;28;19909;-89
2023/04/07 03:39:05;;;;;;;;;;;12.70;60.00;;;;;;5013609;28;19914;-89
2023/04/07 03:41:53;;;;;;;;;;;12.70;60.00;;;;;;4958713;28;19915;-89
2023/04/07 03:44:30;;;;;;;;;;;12.70;60.00;;;;;;4975948;28;19918;-89
2023/04/07 03:47:03;;;;;;;;;;;12.70;60.00;;;;;;4959899;28;20027;-90
2023/04/07 03:49:29;;;;;;;;;;;12.70;60.10;;;;;;5021070;28;19908;-89
2023/04/07 03:51:55;;;;;;;;;;;12.70;60.10;;;;;;5057840;28;19916;-89
2023/04/07 03:54:35;;;;;;;;;;;12.70;60.10;;;;;;5076141;28;19935;-89
2023/04/07 03:57:19;;;;;;;;;;;12.70;60.10;;;;;;5057601;28;20178;-89
2023/04/07 04:00:07;;;;;;;;;;;12.70;60.10;;;;;;5058455;28;20273;-89
2023/04/07 04:02:33;;;;;;;;;;;12.70;60.10;;;;;;5058099;28;19908;-89
2023/04/07 04:05:02;;;;;;;;;;;12.70;60.10;;;;;;5056896;28;19919;-89
2023/04/07 04:07:32;;;;;;;;;;;12.70;60.20;;;;;;5074704;28;19920;-89
2023/04/07 04:10:43;;;;;;;;;;;12.70;60.20;;;;;;5057841;28;19908;-89
2023/04/07 04:13:14;;;;;;;;;;;12.70;60.20;;;;;;4993757;28;20220;-89
2023/04/07 04:15:45;;;;;;;;;;;12.70;60.20;;;;;;4977970;28;19910;-89
2023/04/07 04:18:16;;;;;;;;;;;12.70;60.30;;;;;;4992812;28;19937;-89
2023/04/07 04:20:57;;;;;;;;;;;12.70;60.30;;;;;;4994554;28;20332;-89
2023/04/07 04:23:44;;;;;;;;;;;12.70;60.30;;;;;;4993815;28;20187;-89
2023/04/07 04:26:24;;;;;;;;;;;12.70;61.00;;;;;;4994320;28;20015;-90
2023/04/07 04:28:50;;;;;;;;;;;12.70;60.30;;;;;;4993410;28;19929;-89
2023/04/07 04:31:31;;;;;;;;;;;12.70;60.30;;;;;;4977935;28;19910;-89
2023/04/07 04:34:35;;;;;;;;;;;12.70;60.40;;;;;;4994430;28;19975;-89
2023/04/07 04:37:23;;;;;;;;;;;12.70;60.40;;;;;;4959130;28;19917;-90
2023/04/07 04:40:08;;;;;;;;;;;12.70;60.40;;;;;;4946930;28;20405;-90
2023/04/07 04:42:40;;;;;;;;;;;12.70;60.40;;;;;;4974214;28;20523;-89
2023/04/07 04:45:20;;;;;;;;;;;12.70;60.50;;;;;;4993751;28;19910;-89
2023/04/07 04:51:06;;;;;;;;;;;12.70;60.40;;;;;;4974872;28;19917;-89
2023/04/07 04:53:50;;;;;;;;;;;12.70;60.40;;;;;;4974871;28;19910;-90
2023/04/07 04:56:57;;;;;;;;;;;12.70;60.40;;;;;;4991367;28;19936;-89
2023/04/07 04:59:23;;;;;;;;;;;12.70;60.40;;;;;;4917205;29;19954;-89
2023/04/07 05:01:50;;;;;;;;;;;12.70;60.50;;;;;;4918426;29;19911;-89
2023/04/07 05:04:40;;;;;;;;;;;12.70;60.40;;;;;;4958917;28;19972;-89
2023/04/07 05:07:15;;;;;;;;;;;12.70;60.50;;;;;;4974949;28;20024;-89
2023/04/07 05:09:59;;;;;;;;;;;12.70;60.40;;;;;;4991375;28;19914;-89
2023/04/07 05:12:30;;;;;;;;;;;12.70;60.50;;;;;;4974270;28;19920;-89
2023/04/07 05:15:02;;;;;;;;;;;12.70;60.50;;;;;;4973781;28;19910;-89
2023/04/07 05:17:36;;;;;;;;;;;12.70;60.50;;;;;;5019397;28;19979;-89
2023/04/07 05:20:16;;;;;;;;;;;12.70;60.50;;;;;;5073536;28;19946;-89
2023/04/07 05:22:45;;;;;;;;;;;12.70;60.50;;;;;;5073380;28;19916;-90
2023/04/07 05:25:10;;;;;;;;;;;12.70;60.40;;;;;;5055804;28;20019;-89
2023/04/07 05:27:39;;;;;;;;;;;12.70;60.50;;;;;;5055248;28;20052;-90
2023/04/07 05:30:08;;;;;;;;;;;12.70;61.10;;;;;;5054779;28;19909;-90
2023/04/07 05:32:34;;;;;;;;;;;12.70;60.50;;;;;;5055290;28;19925;-90
2023/04/07 05:34:59;;;;;;;;;;;12.70;60.50;;;;;;5054372;28;19923;-90
2023/04/07 05:37:25;;;;;;;;;;;12.70;60.60;;;;;;5056649;28;19935;-90
2023/04/07 05:39:50;;;;;;;;;;;12.70;60.60;;;;;;5056158;28;20241;-90
2023/04/07 05:42:19;;;;;;;;;;;12.70;60.60;;;;;;5055718;28;19924;-90
2023/04/07 05:44:48;;;;;;;;;;;12.70;60.60;;;;;;5053991;28;19935;-90
2023/04/07 05:47:17;;;;;;;;;;;12.70;60.70;;;;;;5056786;28;20298;-90
2023/04/07 05:49:46;;;;;;;;;;;12.70;60.60;;;;;;5056918;28;19955;-90
2023/04/07 05:52:30;;;;;;;;;;;12.70;60.60;;;;;;5057383;28;19916;-90
2023/04/07 05:57:57;;;;;;;;;;;12.80;60.70;;;;;;4975071;28;20386;-90
2023/04/07 06:00:42;;;;;;;;;;;12.80;60.70;;;;;;5046001;28;19913;-90
2023/04/07 06:03:19;;;;;;;;;;;12.80;60.70;;;;;;5037868;28;20163;-89
2023/04/07 06:06:00;;;;;;;;;;;12.80;60.70;;;;;;5038733;28;19931;-89
2023/04/07 06:09:04;;;;;;;;;;;12.80;60.60;;;;;;5035990;28;19971;-90
2023/04/07 06:11:47;;;;;;;;;;;12.80;60.60;;;;;;5033430;28;20286;-90
2023/04/07 06:14:22;;;;;;;;;;;12.80;60.70;;;;;;5033750;28;19932;-90
2023/04/07 06:17:05;;;;;;;;;;;12.80;60.70;;;;;;5032708;28;19936;-90
2023/04/07 06:19:40;;;;;;;;;;;12.80;60.70;;;;;;5040961;28;20136;-90
2023/04/07 06:25:17;;;;;;;;;;;12.80;60.70;;;;;;5051490;28;19923;-90
2023/04/07 06:27:52;;;;;;;;;;;12.80;60.60;;;;;;5034607;28;19913;-90
2023/04/07 06:30:21;;;;;;;;;;;12.80;60.60;;;;;;5034883;28;20237;-90
2023/04/07 06:32:46;;;;;;;;;;;12.80;60.60;;;;;;5064935;28;20226;-90
2023/04/07 06:35:19;;;;;;;;;;;12.80;60.60;;;;;;5055718;28;19966;-90
2023/04/07 06:37:59;;;;;;;;;;;12.80;60.60;;;;;;5056538;28;19916;-90
2023/04/07 06:40:43;;;;;;;;;;;12.80;60.60;;;;;;5055826;28;19909;-90
2023/04/07 06:43:09;;;;;;;;;;;12.80;60.60;;;;;;5055187;28;20014;-89
2023/04/07 06:45:34;;;;;;;;;;;12.80;60.60;;;;;;5055858;28;20003;-90
2023/04/07 06:48:00;;;;;;;;;;;12.90;60.60;;;;;;5057726;28;19994;-90
2023/04/07 06:50:31;;;;;;;;;;;12.90;60.60;;;;;;5056531;28;19916;-90
2023/04/07 06:52:57;;;;;;;;;;;12.90;60.70;;;;;;5056429;28;20144;-91
2023/04/07 06:55:23;;;;;;;;;;;12.90;60.60;;;;;;5056505;28;19909;-90
2023/04/07 06:57:54;;;;;;;;;;;12.90;60.60;;;;;;5056686;28;19908;-90
2023/04/07 07:00:21;;;;;;;;;;;12.90;60.60;;;;;;5055899;28;19919;-90
2023/04/07 07:02:54;;;;;;;;;;;12.90;60.60;;;;;;5056728;28;19948;-90
2023/04/07 07:05:22;;;;;;;;;;;12.90;60.50;;;;;;5074482;28;19915;-90
2023/04/07 07:08:03;;;;;;;;;;;12.90;60.50;;;;;;5057920;28;19926;-90
2023/04/07 07:10:47;;;;;;;;;;;12.90;60.50;;;;;;5057192;28;20037;-90
2023/04/07 07:13:31;;;;;;;;;;;12.90;60.50;;;;;;5056089;28;19995;-90
2023/04/07 07:16:00;;;;;;;;;;;12.90;60.60;;;;;;5073480;28;20359;-90
2023/04/07 07:18:32;;;;;;;;;;;12.90;60.50;;;;;;5054308;28;19984;-90
2023/04/07 07:21:03;;;;;;;;;;;13.00;60.60;;;;;;5053660;28;20393;-90
2023/04/07 07:23:58;;;;;;;;;;;13.00;60.60;;;;;;5055759;28;19924;-90
2023/04/07 07:26:36;;;;;;;;;;;13.00;60.60;;;;;;4991311;28;20304;-90
2023/04/07 07:29:04;;;;;;;;;;;12.90;60.50;;;;;;4991986;28;20236;-90
2023/04/07 07:31:39;;;;;;;;;;;13.00;60.60;;;;;;4990337;28;19910;-91
2023/04/07 07:34:04;;;;;;;;;;;13.00;60.60;;;;;;4974328;28;19918;-90
2023/04/07 07:36:42;;;;;;;;;;;13.00;60.60;;;;;;4974865;28;19910;-91
2023/04/07 07:39:13;;;;;;;;;;;13.00;60.70;;;;;;4989977;28;20341;-90
2023/04/07 07:41:56;;;;;;;;;;;13.00;60.60;;;;;;4988920;28;19921;-90
2023/04/07 07:44:50;;;;;;;;;;;13.00;60.70;;;;;;5034828;28;20263;-90
2023/04/07 07:47:25;;;;;;;;;;;13.00;60.70;;;;;;5058695;28;19912;-90
2023/04/07 07:50:20;;;;;;;;;;;13.00;60.60;;;;;;5038715;28;20072;-90
2023/04/07 07:52:48;;;;;;;;;;;13.00;60.60;;;;;;5051052;28;19909;-90
2023/04/07 07:58:08;;;;;;;;;;;13.00;60.60;;;;;;5053952;28;19908;-90
2023/04/07 08:00:34;;;;;;;;;;;13.00;60.60;;;;;;5053289;28;19969;-90
2023/04/07 08:03:21;;;;;;;;;;;13.00;60.50;;;;;;5055440;28;19909;-91
2023/04/07 08:05:47;;;;;;;;;;;13.00;60.50;;;;;;5073200;28;19915;-91
2023/04/07 08:08:16;;;;;;;;;;;13.00;61.10;;;;;;5055551;28;20023;-90
2023/04/07 08:10:50;;;;;;;;;;;13.10;60.60;;;;;;5055217;28;19931;-90
2023/04/07 08:13:16;;;;;;;;;;;13.00;60.50;;;;;;5056435;28;19970;-90
2023/04/07 08:15:41;;;;;;;;;;;13.00;60.40;;;;;;5054004;28;19917;-90
2023/04/07 08:18:34;;;;;;;;;;;13.00;60.40;;;;;;5055216;28;19915;-90
2023/04/07 08:21:00;;;;;;;;;;;13.10;60.50;;;;;;5054954;28;19923;-90
2023/04/07 08:23:25;;;;;;;;;;;13.10;60.40;;;;;;5055508;28;20011;-90
2023/04/07 08:25:54;;;;;;;;;;;13.10;60.30;;;;;;5054110;28;19913;-90
2023/04/07 08:28:32;;;;;;;;;;;13.10;60.30;;;;;;5054847;28;19918;-90
2023/04/07 08:31:00;;;;;;;;;;;13.20;60.30;;;;;;5055848;28;19915;-90
2023/04/07 08:33:29;;;;;;;;;;;13.20;60.20;;;;;;5054399;28;20013;-91
2023/04/07 08:35:55;;;;;;;;;;;13.20;60.10;;;;;;5053143;28;20054;-91
2023/04/07 08:38:33;;;;;;;;;;;13.20;60.10;;;;;;5052358;28;20062;-90
2023/04/07 08:41:06;;;;;;;;;;;13.20;60.00;;;;;;5052140;28;20202;-90
2023/04/07 08:43:40;;;;;;;;;;;13.20;60.00;;;;;;5051628;28;20167;-90
2023/04/07 08:46:20;;;;;;;;;;;13.20;59.90;;;;;;5052620;28;19936;-90
2023/04/07 08:48:58;;;;;;;;;;;13.30;60.00;;;;;;5069175;28;20076;-90
2023/04/07 08:51:31;;;;;;;;;;;13.20;59.90;;;;;;5053406;28;19970;-90
2023/04/07 08:54:11;;;;;;;;;;;13.30;59.90;;;;;;5053833;28;19920;-90
2023/04/07 08:56:44;;;;;;;;;;;13.20;59.90;;;;;;5052163;28;19909;-90
2023/04/07 08:59:27;;;;;;;;;;;13.20;59.90;;;;;;5072910;28;19968;-90
2023/04/07 09:01:53;;;;;;;;;;;13.30;59.90;;;;;;5052802;28;19908;-90
2023/04/07 09:04:23;;;;;;;;;;;13.30;59.80;;;;;;5053869;28;19908;-90
2023/04/07 09:06:58;;;;;;;;;;;13.30;59.80;;;;;;5028868;28;19913;-90
2023/04/07 09:12:16;;;;;;;;;;;13.30;59.80;;;;;;5015538;28;20399;-90
2023/04/07 09:15:03;;;;;;;;;;;13.30;59.80;;;;;;5030803;28;19909;-90
2023/04/07 09:17:34;;;;;;;;;;;13.30;59.80;;;;;;5029894;28;19936;-90
2023/04/07 09:20:09;;;;;;;;;;;13.30;59.90;;;;;;5031013;28;20452;-90
2023/04/07 09:22:38;;;;;;;;;;;13.30;59.90;;;;;;5033327;28;20210;-90
2023/04/07 09:25:29;;;;;;;;;;;13.30;60.50;;;;;;5032241;28;20278;-90
2023/04/07 09:28:04;;;;;;;;;;;13.30;59.90;;;;;;5032694;28;19931;-90
2023/04/07 09:30:30;;;;;;;;;;;13.30;60.00;;;;;;5033460;28;19909;-90
2023/04/07 09:32:59;;;;;;;;;;;13.30;60.00;;;;;;5032189;28;20044;-90
2023/04/07 09:35:47;;;;;;;;;;;13.30;60.00;;;;;;5033373;28;20019;-90
2023/04/07 09:38:22;;;;;;;;;;;13.30;60.00;;;;;;5059453;28;19916;-90
2023/04/07 09:40:48;;;;;;;;;;;13.30;60.00;;;;;;5051364;28;19912;-90
2023/04/07 09:43:18;;;;;;;;;;;13.30;60.00;;;;;;5058091;28;19908;-90
2023/04/07 09:45:46;;;;;;;;;;;13.30;59.90;;;;;;5054835;28;19908;-90
2023/04/07 09:48:28;;;;;;;;;;;13.30;59.90;;;;;;5075971;28;19912;-90
2023/04/07 09:51:06;;;;;;;;;;;13.30;60.00;;;;;;5057396;28;19917;-89
2023/04/07 09:53:42;;;;;;;;;;;13.30;60.00;;;;;;5074669;28;19909;-90
2023/04/07 09:56:24;;;;;;;;;;;13.30;60.00;;;;;;5057560;28;19966;-90
2023/04/07 09:59:30;;;;;;;;;;;13.30;60.00;;;;;;5057017;28;20015;-90
2023/04/07 10:04:45;;;;;;;;;;;13.30;60.70;;;;;;4986439;28;19910;-90
2023/04/07 10:07:17;;;;;;;;;;;13.30;60.10;;;;;;4990212;28;20350;-90
2023/04/07 10:09:54;;;;;;;;;;;13.30;60.10;;;;;;4991920;28;20291;-90
2023/04/07 10:12:26;;;;;;;;;;;13.30;60.20;;;;;;4998865;28;19944;-90
2023/04/07 10:15:03;;;;;;;;;;;13.40;60.30;;;;;;5055634;28;20254;-90
2023/04/07 10:17:30;;;;;;;;;;;13.40;60.30;;;;;;5054150;28;19945;-91
2023/04/07 10:20:21;;;;;;;;;;;13.40;60.30;;;;;;5053005;28;19908;-90
2023/04/07 10:23:18;;;;;;;;;;;13.30;60.30;;;;;;5055586;28;19952;-90
2023/04/07 10:25:52;;;;;;;;;;;13.40;60.40;;;;;;5056004;28;20284;-91
2023/04/07 10:28:24;;;;;;;;;;;13.40;60.40;;;;;;5056674;28;19912;-90
2023/04/07 10:30:49;;;;;;;;;;;13.40;60.40;;;;;;5056272;28;19998;-90
2023/04/07 10:33:52;;;;;;;;;;;13.40;60.40;;;;;;5054704;28;19982;-90
2023/04/07 10:36:28;;;;;;;;;;;13.40;60.40;;;;;;5055757;28;19916;-90
2023/04/07 10:39:06;;;;;;;;;;;13.40;61.10;;;;;;5055579;28;19940;-90
2023/04/07 10:41:35;;;;;;;;;;;13.40;60.50;;;;;;5054778;28;19909;-90
2023/04/07 10:44:11;;;;;;;;;;;13.40;60.60;;;;;;5055104;28;19948;-90
2023/04/07 10:46:54;;;;;;;;;;;13.40;60.50;;;;;;5011475;28;20280;-90
2023/04/07 10:49:39;;;;;;;;;;;13.40;60.50;;;;;;5010927;28;20067;-90
2023/04/07 10:52:23;;;;;;;;;;;13.40;60.40;;;;;;5010149;28;20035;-90
2023/04/07 10:55:26;;;;;;;;;;;13.50;60.50;;;;;;5009579;28;20211;-90
2023/04/07 10:58:10;;;;;;;;;;;13.40;60.50;;;;;;5012631;28;19922;-90
2023/04/07 11:00:36;;;;;;;;;;;13.40;60.60;;;;;;5012986;28;19910;-90
2023/04/07 11:03:15;;;;;;;;;;;13.40;60.60;;;;;;5011305;28;19909;-90
2023/04/07 11:08:49;;;;;;;;;;;13.40;60.70;;;;;;4987733;28;19921;-90
2023/04/07 11:11:18;;;;;;;;;;;13.40;60.60;;;;;;5010689;28;19951;-90
2023/04/07 11:13:59;;;;;;;;;;;13.50;60.70;;;;;;5010692;28;20004;-90
2023/04/07 11:16:36;;;;;;;;;;;13.50;60.60;;;;;;5012031;28;20211;-90
2023/04/07 11:19:02;;;;;;;;;;;13.50;60.50;;;;;;5055092;28;19908;-90
2023/04/07 11:21:30;;;;;;;;;;;13.50;60.50;;;;;;5055072;28;19973;-90
2023/04/07 11:23:56;;;;;;;;;;;13.60;60.40;;;;;;5053420;28;19923;-90
2023/04/07 11:26:22;;;;;;;;;;;13.60;60.30;;;;;;5053487;28;19908;-90
2023/04/07 11:28:58;;;;;;;;;;;13.60;60.20;;;;;;5054940;28;20167;-89
2023/04/07 11:31:30;;;;;;;;;;;13.60;60.10;;;;;;5055787;28;20159;-90
2023/04/07 11:34:03;;;;;;;;;;;13.60;60.00;;;;;;5056131;28;19919;-90
2023/04/07 11:36:39;;;;;;;;;;;13.60;60.00;;;;;;5055526;28;20167;-90
2023/04/07 11:39:19;;;;;;;;;;;13.60;60.00;;;;;;5055291;28;19970;-90
2023/04/07 11:41:47;;;;;;;;;;;13.60;60.10;;;;;;5053818;28;20208;-90
2023/04/07 11:44:22;;;;;;;;;;;13.60;60.30;;;;;;5054238;28;19916;-90
2023/04/07 11:47:03;;;;;;;;;;;13.60;60.50;;;;;;5056631;28;19931;-90
2023/04/07 11:49:43;;;;;;;;;;;13.60;60.70;;;;;;5054542;28;20274;-90
2023/04/07 11:52:08;;;;;;;;;;;13.60;61.00;;;;;;5054733;28;19908;-90
2023/04/07 11:54:46;;;;;;;;;;;13.60;61.00;;;;;;5055541;28;19909;-90
2023/04/07 11:57:12;;;;;;;;;;;13.60;60.90;;;;;;5073903;28;20030;-90
2023/04/07 11:59:56;;;;;;;;;;;13.60;61.00;;;;;;5056191;28;19909;-90
2023/04/07 12:03:00;;;;;;;;;;;13.60;61.00;;;;;;5055250;28;19916;-90
2023/04/07 12:05:41;;;;;;;;;;;13.60;61.00;;;;;;5028998;28;19912;-90
2023/04/07 12:08:35;;;;;;;;;;;13.60;61.00;;;;;;5042505;28;20071;-90
2023/04/07 12:11:04;;;;;;;;;;;13.60;61.10;;;;;;5054228;28;19908;-90
2023/04/07 12:13:30;;;;;;;;;;;13.60;61.10;;;;;;5055115;28;19908;-90
2023/04/07 12:16:00;;;;;;;;;;;13.60;61.00;;;;;;5055622;28;19970;-90
2023/04/07 12:21:17;;;;;;;;;;;13.60;61.40;;;;;;5071537;28;19916;-90
2023/04/07 12:23:47;;;;;;;;;;;13.60;61.50;;;;;;5072455;28;19920;-90
2023/04/07 12:26:12;;;;;;;;;;;13.60;61.70;;;;;;5053403;28;20227;-90
2023/04/07 12:29:03;;;;;;;;;;;13.60;61.70;;;;;;5053006;28;19923;-90
2023/04/07 12:31:36;;;;;;;;;;;13.60;61.80;;;;;;5024494;28;19949;-90
2023/04/07 12:34:20;;;;;;;;;;;13.60;61.80;;;;;;5026901;28;19983;-90
2023/04/07 12:36:52;;;;;;;;;;;13.60;62.20;;;;;;5028870;28;19909;-90
2023/04/07 12:39:18;;;;;;;;;;;13.60;62.10;;;;;;5012286;28;20020;-90
2023/04/07 12:41:47;;;;;;;;;;;13.70;62.20;;;;;;5012786;28;20260;-90
2023/04/07 12:44:32;;;;;;;;;;;13.70;62.20;;;;;;5013100;28;20003;-89
2023/04/07 12:46:58;;;;;;;;;;;13.70;62.50;;;;;;5012528;28;19916;-89
2023/04/07 12:49:23;;;;;;;;;;;13.70;62.30;;;;;;5011762;28;19909;-90
2023/04/07 12:51:49;;;;;;;;;;;13.60;62.40;;;;;;5010430;28;19920;-90
2023/04/07 12:54:17;;;;;;;;;;;13.60;62.60;;;;;;5009531;28;20067;-90
2023/04/07 12:56:43;;;;;;;;;;;13.70;62.70;;;;;;5014249;28;19936;-90
2023/04/07 12:59:11;;;;;;;;;;;13.70;62.70;;;;;;5014097;28;19920;-90
2023/04/07 13:01:40;;;;;;;;;;;13.70;62.60;;;;;;5015649;28;20259;-90
2023/04/07 13:04:08;;;;;;;;;;;13.70;62.60;;;;;;5055383;28;20198;-90
2023/04/07 13:06:34;;;;;;;;;;;13.70;62.50;;;;;;5055994;28;20409;-90
2023/04/07 13:09:03;;;;;;;;;;;13.70;62.50;;;;;;5055412;28;20114;-90
2023/04/07 13:11:35;;;;;;;;;;;13.70;62.40;;;;;;5074352;28;19952;-90
2023/04/07 13:14:09;;;;;;;;;;;13.70;62.30;;;;;;5073770;28;19908;-90
2023/04/07 13:16:41;;;;;;;;;;;13.80;62.30;;;;;;5073847;28;20000;-90
2023/04/07 13:21:55;;;;;;;;;;;13.80;62.20;;;;;;5013313;28;20004;-90
2023/04/07 13:24:24;;;;;;;;;;;13.80;62.10;;;;;;5012767;28;20020;-91
2023/04/07 13:26:53;;;;;;;;;;;13.80;62.20;;;;;;5004879;28;19968;-90
2023/04/07 13:29:19;;;;;;;;;;;13.80;62.20;;;;;;5011672;28;20323;-90
2023/04/07 13:31:47;;;;;;;;;;;13.80;62.30;;;;;;5012188;28;19945;-90
2023/04/07 13:34:30;;;;;;;;;;;13.80;62.20;;;;;;4991965;28;19945;-91
2023/04/07 13:37:15;;;;;;;;;;;13.90;62.30;;;;;;4991063;28;19910;-91
2023/04/07 13:39:47;;;;;;;;;;;13.90;62.10;;;;;;5009958;28;20160;-90
2023/04/07 13:42:32;;;;;;;;;;;13.90;62.20;;;;;;5013178;28;19913;-91
2023/04/07 13:45:01;;;;;;;;;;;13.90;62.10;;;;;;5012297;28;20003;-90
2023/04/07 13:47:32;;;;;;;;;;;13.90;62.10;;;;;;5016382;28;19956;-90
2023/04/07 13:50:02;;;;;;;;;;;13.90;62.30;;;;;;5015330;28;19909;-90
2023/04/07 13:52:27;;;;;;;;;;;13.90;62.20;;;;;;5014117;28;19952;-89
2023/04/07 13:55:04;;;;;;;;;;;13.90;62.10;;;;;;5013972;28;19975;-90
2023/04/07 13:57:30;;;;;;;;;;;13.90;62.10;;;;;;5003545;28;19916;-90
2023/04/07 13:59:55;;;;;;;;;;;13.90;62.00;;;;;;5012331;28;19909;-90
2023/04/07 14:02:24;;;;;;;;;;;13.90;62.10;;;;;;5009945;28;19995;-89
2023/04/07 14:04:56;;;;;;;;;;;13.90;62.10;;;;;;5027625;28;20003;-90
2023/04/07 14:07:24;;;;;;;;;;;13.90;62.30;;;;;;5039600;28;19924;-90
2023/04/07 14:09:50;;;;;;;;;;;13.90;62.20;;;;;;5054357;28;19913;-91
2023/04/07 14:12:15;;;;;;;;;;;13.90;62.30;;;;;;5074472;28;20007;-91
2023/04/07 14:14:41;;;;;;;;;;;13.90;62.40;;;;;;5056430;28;19908;-90
2023/04/07 14:17:19;;;;;;;;;;;13.80;62.40;;;;;;5053012;28;19917;-90
2023/04/07 14:20:00;;;;;;;;;;;13.80;62.50;;;;;;5054642;28;20185;-91
2023/04/07 14:22:25;;;;;;;;;;;13.80;62.70;;;;;;5054365;28;19930;-90
2023/04/07 14:25:06;;;;;;;;;;;13.80;62.80;;;;;;5054366;28;19920;-90
2023/04/07 14:27:53;;;;;;;;;;;13.80;62.90;;;;;;5055273;28;19916;-90
2023/04/07 14:30:19;;;;;;;;;;;13.90;62.90;;;;;;5053758;28;19920;-90
2023/04/07 14:32:47;;;;;;;;;;;13.90;62.70;;;;;;5053669;28;19908;-90
2023/04/07 14:38:16;;;;;;;;;;;14.00;62.60;;;;;;5073452;28;19942;-90
2023/04/07 14:40:42;;;;;;;;;;;14.00;62.40;;;;;;5054667;28;19935;-90
2023/04/07 14:43:09;;;;;;;;;;;14.00;62.30;;;;;;5054549;28;19951;-90
2023/04/07 14:45:46;;;;;;;;;;;14.00;62.10;;;;;;5053974;28;20175;-90
2023/04/07 14:48:16;;;;;;;;;;;14.10;62.10;;;;;;5053312;28;20250;-90
2023/04/07 14:50:51;;;;;;;;;;;14.10;62.00;;;;;;5053617;28;19908;-90
2023/04/07 14:53:32;;;;;;;;;;;14.10;61.80;;;;;;5053794;28;19944;-90
2023/04/07 14:56:13;;;;;;;;;;;14.10;61.70;;;;;;5054743;28;19908;-90
2023/04/07 14:58:39;;;;;;;;;;;14.10;61.70;;;;;;5056245;28;19920;-90
2023/04/07 15:01:23;;;;;;;;;;;14.10;61.80;;;;;;5054977;28;19999;-89
2023/04/07 15:03:57;;;;;;;;;;;14.10;61.80;;;;;;5055009;28;19912;-90
2023/04/07 15:06:28;;;;;;;;;;;14.10;61.80;;;;;;5053566;28;19908;-90
2023/04/07 15:08:54;;;;;;;;;;;14.10;62.00;;;;;;5052958;28;19913;-90
2023/04/07 15:11:40;;;;;;;;;;;14.10;62.30;;;;;;5052839;28;19918;-90
2023/04/07 15:14:05;;;;;;;;;;;14.00;62.60;;;;;;5051954;28;19909;-90
2023/04/07 15:16:34;;;;;;;;;;;14.00;63.50;;;;;;5052331;28;19908;-90
2023/04/07 15:19:00;;;;;;;;;;;14.00;63.50;;;;;;5051298;28;20236;-90
2023/04/07 15:21:48;;;;;;;;;;;14.10;64.00;;;;;;5051832;28;19920;-90
2023/04/07 15:24:14;;;;;;;;;;;14.10;64.40;;;;;;5069148;28;20107;-90
2023/04/07 15:26:39;;;;;;;;;;;14.10;64.10;;;;;;5047732;28;20239;-90
2023/04/07 15:29:05;;;;;;;;;;;14.10;64.10;;;;;;5048883;28;20453;-90
2023/04/07 15:31:34;;;;;;;;;;;14.10;64.00;;;;;;5048621;28;19909;-90
2023/04/07 15:34:05;;;;;;;;;;;14.20;63.80;;;;;;5048807;28;19915;-90
2023/04/07 15:36:31;;;;;;;;;;;14.20;63.90;;;;;;5049846;28;19970;-90
2023/04/07 15:39:06;;;;;;;;;;;14.20;64.00;;;;;;5048482;28;19916;-90
2023/04/07 15:41:35;;;;;;;;;;;14.20;64.10;;;;;;5049503;28;20007;-90
2023/04/07 15:44:08;;;;;;;;;;;14.20;64.20;;;;;;5048005;28;19916;-90
2023/04/07 15:46:39;;;;;;;;;;;14.20;64.40;;;;;;5048385;28;20012;-90
2023/04/07 15:49:08;;;;;;;;;;;14.20;64.70;;;;;;5047617;28;20086;-90
2023/04/07 15:51:42;;;;;;;;;;;14.20;64.60;;;;;;5048073;28;20413;-90
2023/04/07 15:54:07;;;;;;;;;;;14.20;64.40;;;;;;5047864;28;19975;-90
2023/04/07 15:56:33;;;;;;;;;;;14.20;64.20;;;;;;5048458;28;19909;-90
2023/04/07 15:59:07;;;;;;;;;;;14.20;64.30;;;;;;5069962;28;19909;-90
2023/04/07 16:01:33;;;;;;;;;;;14.20;64.30;;;;;;5053318;28;19919;-90
2023/04/07 16:03:58;;;;;;;;;;;14.20;64.20;;;;;;5072004;28;19909;-90
2023/04/07 16:06:43;;;;;;;;;;;14.20;64.20;;;;;;5054636;28;19915;-90